Time;durP1;ratioP1;P1;durP2;ratioP2;P2;SDS_P1;SDS_P2;PMS_P1;PMS_P2;Temp;Humidity;BMP_temperature;BMP_pressure;BME280_temperature;BME280_humidity;BME280_pressure;Samples;Min_cycle;Max_cycle;Signal;HPM_P1;HPM_P2
2022/12/21 00:02:11;;;;;;;16.75;13.10;;;;;;;12.03;78.13;99225.41;5009623;28;20050;-80
2022/12/21 00:04:37;;;;;;;14.95;13.35;;;;;;;12.02;78.10;99218.47;4992683;28;20061;-80
2022/12/21 00:07:04;;;;;;;15.63;13.80;;;;;;;12.02;78.16;99218.47;5009710;28;20575;-80
2022/12/21 00:09:30;;;;;;;13.95;12.45;;;;;;;12.01;78.25;99222.06;5009954;28;20744;-80
2022/12/21 00:11:57;;;;;;;14.45;12.88;;;;;;;12.01;78.25;99219.41;5010003;28;20050;-81
2022/12/21 00:14:23;;;;;;;13.95;12.48;;;;;;;12.00;78.23;99209.78;5006769;28;20061;-81
2022/12/21 00:16:50;;;;;;;13.82;12.43;;;;;;;12.00;78.31;99209.78;5013438;28;20053;-81
2022/12/21 00:19:16;;;;;;;14.20;12.77;;;;;;;12.01;78.29;99224.69;5009742;28;20567;-81
2022/12/21 00:21:43;;;;;;;14.82;13.32;;;;;;;12.01;78.12;99222.06;4992430;28;20046;-81
2022/12/21 00:24:09;;;;;;;15.48;13.90;;;;;;;12.02;78.18;99225.53;5009891;28;20128;-81
2022/12/21 00:26:37;;;;;;;15.30;13.70;;;;;;;12.01;78.18;99227.34;5012285;28;20054;-81
2022/12/21 00:29:05;;;;;;;13.82;12.35;;;;;;;12.01;78.20;99226.47;5018165;28;20057;-81
2022/12/21 00:31:34;;;;;;;14.90;12.60;;;;;;;12.00;78.25;99228.25;4992432;28;20108;-81
2022/12/21 00:34:01;;;;;;;14.88;12.52;;;;;;;12.00;78.26;99220.34;5009880;28;20494;-81
2022/12/21 00:36:28;;;;;;;15.30;11.80;;;;;;;12.00;78.33;99220.34;5028714;28;20065;-81
2022/12/21 00:38:56;;;;;;;13.30;11.90;;;;;;;12.01;78.34;99215.94;5029544;28;20063;-81
2022/12/21 00:41:26;;;;;;;13.45;12.05;;;;;;;12.01;78.05;99214.16;5012009;28;20053;-81
2022/12/21 00:43:54;;;;;;;13.23;11.93;;;;;;;12.03;78.02;99217.50;5029564;28;20065;-81
2022/12/21 00:46:29;;;;;;;15.32;11.90;;;;;;;12.02;77.72;99225.53;5029894;28;20069;-81
2022/12/21 00:49:00;;;;;;;13.85;11.25;;;;;;;12.01;77.73;99222.06;5029259;28;20865;-81
2022/12/21 00:51:28;;;;;;;13.15;11.75;;;;;;;12.03;78.02;99219.31;5029628;28;20145;-81
2022/12/21 00:53:56;;;;;;;12.77;11.45;;;;;;;12.01;78.14;99222.06;5029439;28;20061;-81
2022/12/21 00:56:23;;;;;;;14.57;12.02;;;;;;;12.02;78.08;99229.00;5029216;28;20061;-81
2022/12/21 00:58:50;;;;;;;14.70;11.73;;;;;;;12.01;78.18;99222.06;5011809;28;20065;-81
2022/12/21 01:01:24;;;;;;;13.07;11.65;;;;;;;11.99;77.71;99223.94;5029302;28;20053;-81
2022/12/21 01:03:52;;;;;;;13.13;11.73;;;;;;;12.02;77.93;99230.78;5029369;28;20061;-81
2022/12/21 01:06:29;;;;;;;13.02;11.63;;;;;;;11.98;77.71;99227.53;5029254;28;20065;-81
2022/12/21 01:08:56;;;;;;;13.63;12.10;;;;;;;12.02;77.94;99225.53;5029081;28;20148;-81
2022/12/21 01:11:24;;;;;;;13.63;12.23;;;;;;;12.03;77.93;99230.69;5011519;28;20061;-81
2022/12/21 01:13:52;;;;;;;12.98;11.57;;;;;;;12.03;77.92;99229.88;5032838;28;20068;-81
2022/12/21 01:16:24;;;;;;;14.27;12.57;;;;;;;12.03;78.13;99235.97;5015035;28;20068;-81
2022/12/21 01:18:51;;;;;;;13.93;12.27;;;;;;;12.04;77.90;99236.81;5032846;28;20415;-81
2022/12/21 01:21:23;;;;;;;14.10;12.60;;;;;;;12.04;77.71;99242.09;5032897;28;20574;-82
2022/12/21 01:23:51;;;;;;;13.88;12.40;;;;;;;12.03;77.72;99245.69;5032989;28;20061;-81
2022/12/21 01:26:17;;;;;;;14.60;13.07;;;;;;;12.03;77.73;99254.44;5032808;28;20107;-81
2022/12/21 01:28:44;;;;;;;16.15;14.02;;;;;;;12.03;77.89;99259.72;5032765;28;20065;-81
2022/12/21 01:31:11;;;;;;;16.02;13.02;;;;;;;12.02;77.74;99249.25;5015048;28;20463;-81
2022/12/21 01:36:09;;;;;;;14.40;12.03;;;;;;;11.98;77.55;99269.75;4994221;23;20141;-85
2022/12/21 01:38:39;;;;;;;13.73;12.30;;;;;;;11.98;78.12;99270.59;5013702;28;20064;-85
2022/12/21 01:41:06;;;;;;;13.30;11.88;;;;;;;11.98;78.08;99270.59;5012246;28;20064;-84
2022/12/21 01:43:51;;;;;;;13.55;12.15;;;;;;;11.93;77.61;99275.34;5013783;28;20792;-85
2022/12/21 01:46:39;;;;;;;14.90;11.95;;;;;;;11.96;77.66;99266.38;5016830;28;20057;-84
2022/12/21 01:49:10;;;;;;;14.43;12.10;;;;;;;11.97;77.76;99266.25;5001301;28;20085;-85
2022/12/21 01:51:38;;;;;;;13.35;11.65;;;;;;;11.99;77.94;99263.50;5013477;28;20049;-85
2022/12/21 01:54:13;;;;;;;14.80;12.07;;;;;;;11.98;77.81;99261.84;5013388;28;20061;-86
2022/12/21 01:56:43;;;;;;;14.52;11.40;;;;;;;11.98;77.93;99270.59;5013493;28;20050;-84
2022/12/21 01:59:18;;;;;;;14.02;12.45;;;;;;;11.96;77.54;99272.50;5013297;28;20096;-83
2022/12/21 02:01:45;;;;;;;14.82;12.55;;;;;;;11.98;77.88;99275.88;5013558;28;20054;-84
2022/12/21 02:04:12;;;;;;;15.73;12.13;;;;;;;11.99;77.96;99266.16;5013429;28;20064;-86
2022/12/21 02:06:47;;;;;;;13.38;11.73;;;;;;;11.96;77.69;99264.56;5012955;28;20074;-83
2022/12/21 02:09:15;;;;;;;16.58;13.32;;;;;;;11.98;77.84;99261.84;4996048;28;20089;-85
2022/12/21 02:11:42;;;;;;;15.43;13.13;;;;;;;11.97;77.82;99268.88;5013270;28;20058;-87
2022/12/21 02:14:11;;;;;;;16.08;13.65;;;;;;;11.97;78.02;99278.63;5013368;28;20057;-84
2022/12/21 02:16:55;;;;;;;18.10;14.07;;;;;;;11.94;77.50;99278.81;5012748;28;20406;-84
2022/12/21 02:19:49;;;;;;;17.48;13.90;;;;;;;11.94;77.44;99270.91;5013195;28;20058;-84
2022/12/21 02:22:49;;;;;;;16.67;13.88;;;;;;;11.93;77.54;99271.88;5013164;28;20593;-84
2022/12/21 02:25:19;;;;;;;17.02;14.38;;;;;;;11.97;77.94;99275.97;5011942;28;20128;-86
2022/12/21 02:28:08;;;;;;;16.33;13.77;;;;;;;11.92;77.14;99264.91;4995581;28;20125;-83
2022/12/21 02:30:43;;;;;;;17.92;14.48;;;;;;;11.92;77.40;99260.47;5012717;28;20503;-84
2022/12/21 02:33:19;;;;;;;17.30;14.73;;;;;;;11.94;77.59;99268.28;5012832;28;20057;-85
2022/12/21 02:36:17;;;;;;;16.23;13.52;;;;;;;11.90;77.17;99267.66;5012193;28;20581;-83
2022/12/21 02:38:52;;;;;;;16.65;13.38;;;;;;;11.92;77.33;99265.75;5012306;28;20050;-86
2022/12/21 02:41:26;;;;;;;19.27;14.95;;;;;;;11.94;77.68;99268.28;5012442;28;20054;-83
2022/12/21 02:44:31;;;;;;;21.48;14.60;;;;;;;11.90;76.99;99264.16;5012599;28;20137;-85
2022/12/21 02:47:16;;;;;;;18.10;14.43;;;;;;;11.93;77.42;99271.88;4990870;28;20056;-85
2022/12/21 02:50:05;;;;;;;17.88;14.07;;;;;;;11.88;76.85;99266.09;5012720;28;20140;-84
2022/12/21 02:52:41;;;;;;;19.45;15.45;;;;;;;11.91;77.38;99263.22;5012185;28;20054;-85
2022/12/21 02:55:11;;;;;;;21.42;15.65;;;;;;;11.88;77.17;99258.19;5012334;28;20105;-83
2022/12/21 02:57:40;;;;;;;21.65;14.63;;;;;;;11.88;77.33;99263.44;5012310;28;20080;-85
2022/12/21 03:00:12;;;;;;;23.75;16.90;;;;;;;11.86;77.30;99274.91;4994881;28;20060;-85
2022/12/21 03:03:47;;;;;;;19.20;15.68;;;;;;;11.87;77.27;99273.13;5012274;28;20585;-85
2022/12/21 03:06:05;;;;;;;19.42;14.63;;;;;;;11.82;76.85;99270.00;5011812;28;20506;-85
2022/12/21 03:09:01;;;;;;;21.75;16.20;;;;;;;11.81;76.79;99273.59;5012093;28;20077;-84
2022/12/21 03:11:48;;;;;;;19.02;14.77;;;;;;;11.81;76.92;99273.59;5006449;28;20090;-81
2022/12/21 03:14:42;;;;;;;22.13;16.33;;;;;;;11.79;76.99;99263.13;5012451;28;20058;-83
2022/12/21 03:17:40;;;;;;;19.85;15.43;;;;;;;11.81;76.89;99268.31;5011538;28;20614;-86
2022/12/21 03:20:12;;;;;;;20.83;15.52;;;;;;;11.82;77.30;99257.63;5011985;28;20522;-85
2022/12/21 03:23:00;;;;;;;20.52;15.65;;;;;;;11.80;77.14;99263.97;5012121;28;20093;-85
2022/12/21 03:25:34;;;;;;;22.35;17.17;;;;;;;11.82;77.23;99260.28;5011663;28;20518;-85
2022/12/21 03:28:07;;;;;;;24.23;16.80;;;;;;;11.84;77.39;99265.44;5011611;28;20054;-82
2022/12/21 03:30:41;;;;;;;20.55;15.65;;;;;;;11.83;76.95;99269.03;5012194;28;20124;-85
2022/12/21 03:33:14;;;;;;;22.02;16.65;;;;;;;11.83;76.99;99272.53;5011743;28;20136;-85
2022/12/21 03:35:49;;;;;;;22.10;17.27;;;;;;;11.80;76.70;99261.31;5011206;28;20058;-81
2022/12/21 03:38:21;;;;;;;23.65;17.02;;;;;;;11.80;76.89;99271.88;5011522;28;20065;-83
2022/12/21 03:40:53;;;;;;;21.08;15.90;;;;;;;11.78;77.20;99263.25;5011791;28;20076;-84
2022/12/21 03:43:32;;;;;;;19.50;15.15;;;;;;;11.73;76.76;99267.03;5011794;28;20068;-84
2022/12/21 03:46:24;;;;;;;24.10;16.85;;;;;;;11.72;76.75;99269.78;5011519;28;20050;-85
2022/12/21 03:48:59;;;;;;;21.33;15.10;;;;;;;11.73;76.76;99272.31;5011369;28;20060;-84
2022/12/21 03:52:05;;;;;;;23.85;17.30;;;;;;;11.71;76.83;99268.09;5011780;28;20117;-84
2022/12/21 03:54:47;;;;;;;24.20;15.88;;;;;;;11.73;77.13;99267.03;4989498;28;20085;-83
2022/12/21 03:57:15;;;;;;;23.42;17.08;;;;;;;11.74;77.46;99265.25;5028204;28;20140;-85
2022/12/21 03:59:45;;;;;;;24.05;17.27;;;;;;;11.73;77.49;99260.91;5031271;28;20045;-84
2022/12/21 04:02:18;;;;;;;22.13;16.67;;;;;;;11.73;77.35;99260.91;5031163;28;20057;-84
2022/12/21 04:04:55;;;;;;;27.02;18.45;;;;;;;11.70;76.87;99256.69;5031023;28;20053;-84
2022/12/21 04:07:25;;;;;;;25.58;18.55;;;;;;;11.71;77.29;99253.13;5030778;28;20132;-86
2022/12/21 04:09:59;;;;;;;27.20;18.70;;;;;;;11.69;76.80;99255.03;5031221;28;20495;-83
2022/12/21 04:12:36;;;;;;;24.38;17.40;;;;;;;11.71;77.21;99252.28;5030761;28;20053;-85
2022/12/21 04:15:05;;;;;;;25.35;18.85;;;;;;;11.68;77.02;99242.81;5013207;28;20488;-84
2022/12/21 04:17:32;;;;;;;24.38;18.73;;;;;;;11.68;77.28;99241.94;5030692;28;20574;-86
2022/12/21 04:19:58;;;;;;;24.88;18.08;;;;;;;11.67;77.40;99240.25;5030667;28;20092;-83
2022/12/21 04:28:07;;;;;;;25.08;18.38;;;;;;;11.64;77.17;99241.31;5030439;28;20061;-83
2022/12/21 04:30:54;;;;;;;23.27;16.92;;;;;;;11.64;77.20;99248.38;5016206;28;20050;-83
2022/12/21 04:33:22;;;;;;;24.75;17.85;;;;;;;11.62;77.30;99239.75;5030540;28;20057;-85
2022/12/21 04:38:39;;;;;;;31.02;20.40;;;;;;;11.58;77.13;99247.88;5030279;28;20061;-82
2022/12/21 04:41:07;;;;;;;32.35;21.63;;;;;;;11.57;77.17;99240.91;5030622;28;20053;-83
2022/12/21 04:43:38;;;;;;;32.60;20.67;;;;;;;11.55;76.83;99244.59;5012779;28;20421;-85
2022/12/21 04:46:11;;;;;;;33.78;21.10;;;;;;;11.51;76.75;99240.50;5030257;28;20057;-83
2022/12/21 04:48:38;;;;;;;30.40;20.50;;;;;;;11.52;77.19;99247.44;5033832;28;20494;-85
2022/12/21 04:51:08;;;;;;;33.88;21.60;;;;;;;11.48;77.23;99236.28;5034352;28;20526;-84
2022/12/21 04:53:35;;;;;;;33.75;21.63;;;;;;;11.47;77.43;99224.03;5034522;28;20099;-83
2022/12/21 04:56:02;;;;;;;34.83;21.17;;;;;;;11.45;77.50;99234.69;5034386;28;20064;-85
2022/12/21 04:58:29;;;;;;;34.10;21.33;;;;;;;11.44;77.44;99235.63;5034166;28;20068;-86
2022/12/21 05:00:55;;;;;;;33.70;22.20;;;;;;;11.43;77.70;99233.09;5034323;28;20060;-85
2022/12/21 05:03:22;;;;;;;35.60;22.08;;;;;;;11.43;77.50;99236.59;5034543;28;20057;-84
2022/12/21 05:05:48;;;;;;;34.75;21.50;;;;;;;11.41;77.57;99227.97;5034050;28;20054;-85
2022/12/21 05:08:15;;;;;;;33.53;20.67;;;;;;;11.41;77.51;99235.00;5016638;28;20132;-86
2022/12/21 05:10:48;;;;;;;;;;;;;;;11.40;76.61;99228.06;5034806;28;20080;-84
2022/12/21 05:13:14;;;;;;;30.23;18.33;;;;;;;11.43;77.06;99222.56;5034137;28;19994;-85
2022/12/21 05:15:41;;;;;;;33.92;19.98;;;;;;;11.40;77.30;99220.97;5033719;28;20136;-83
2022/12/21 05:18:07;;;;;;;36.15;21.13;;;;;;;11.38;77.28;99216.78;5033814;28;20061;-85
2022/12/21 05:20:34;;;;;;;32.63;21.10;;;;;;;11.37;77.43;99221.22;5034238;28;20046;-86
2022/12/21 05:23:00;;;;;;;38.45;21.13;;;;;;;11.35;77.37;99225.72;5034113;28;20476;-83
2022/12/21 05:25:27;;;;;;;145.25;22.70;;;;;;;11.34;77.38;99224.06;5033851;28;20146;-84
2022/12/21 05:27:53;;;;;;;52.28;19.95;;;;;;;11.32;77.34;99215.41;5033819;28;20132;-85
2022/12/21 05:30:20;;;;;;;76.18;21.88;;;;;;;11.30;77.41;99218.16;5033817;28;20068;-85
2022/12/21 05:32:46;;;;;;;275.52;24.90;;;;;;;11.29;77.50;99213.00;5033592;28;20049;-87
2022/12/21 05:35:13;;;;;;;115.63;21.48;;;;;;;11.28;77.59;99219.19;5033686;28;20084;-85
2022/12/21 05:37:42;;;;;;;32.83;18.52;;;;;;;11.26;77.43;99214.06;5033609;28;20061;-83
2022/12/21 05:40:09;;;;;;;160.15;22.88;;;;;;;11.25;77.56;99214.97;5033536;28;20517;-85
2022/12/21 05:42:36;;;;;;;67.50;19.75;;;;;;;11.24;77.74;99231.75;5033645;28;20140;-85
2022/12/21 05:45:03;;;;;;;34.60;20.65;;;;;;;11.23;77.55;99230.06;5033263;28;20482;-83
2022/12/21 05:47:29;;;;;;;31.55;20.10;;;;;;;11.22;77.50;99220.47;5033177;28;20497;-83
2022/12/21 05:49:56;;;;;;;29.77;19.60;;;;;;;11.21;77.67;99218.78;5015955;28;20058;-83
2022/12/21 05:52:22;;;;;;;34.38;20.00;;;;;;;11.20;77.48;99214.47;5015923;28;20132;-86
2022/12/21 05:54:49;;;;;;;33.63;20.30;;;;;;;11.19;77.62;99213.63;5033413;28;20045;-85
2022/12/21 05:57:15;;;;;;;34.38;21.60;;;;;;;11.19;77.52;99204.88;5033225;28;20057;-85
2022/12/21 05:59:42;;;;;;;70.63;21.17;;;;;;;11.18;77.59;99211.91;5015383;28;20087;-83
2022/12/21 06:02:09;;;;;;;65.97;21.52;;;;;;;11.17;77.71;99219.94;5033085;28;20050;-83
2022/12/21 06:04:35;;;;;;;55.88;22.38;;;;;;;11.16;77.80;99215.63;5033332;28;20061;-83
2022/12/21 06:07:02;;;;;;;61.38;21.10;;;;;;;11.15;77.72;99221.84;5033254;28;20049;-86
2022/12/21 06:09:29;;;;;;;36.20;20.33;;;;;;;11.14;77.82;99220.97;5033018;28;20061;-82
2022/12/21 06:11:55;;;;;;;32.92;20.50;;;;;;;11.14;77.79;99207.81;5032828;28;20064;-84
2022/12/21 06:14:22;;;;;;;33.85;20.27;;;;;;;11.14;77.84;99207.00;5032929;28;20049;-85
2022/12/21 06:16:48;;;;;;;30.98;19.33;;;;;;;11.13;77.81;99211.41;5032571;28;20501;-85
2022/12/21 06:19:15;;;;;;;34.85;20.23;;;;;;;11.15;77.75;99216.56;5033026;28;20814;-83
2022/12/21 06:21:41;;;;;;;40.38;20.17;;;;;;;11.14;77.77;99214.88;5033028;28;20054;-82
2022/12/21 06:24:08;;;;;;;91.00;22.00;;;;;;;11.13;77.78;99216.66;5033172;28;20058;-83
2022/12/21 06:26:34;;;;;;;29.73;19.63;;;;;;;11.13;77.69;99221.94;5032589;28;20512;-84
2022/12/21 06:29:01;;;;;;;32.10;19.48;;;;;;;11.13;77.68;99235.09;5032676;28;20414;-86
2022/12/21 06:31:27;;;;;;;37.35;21.05;;;;;;;11.12;77.52;99232.56;5032607;28;20061;-85
2022/12/21 06:33:55;;;;;;;31.60;20.00;;;;;;;11.10;77.28;99239.75;5032577;28;20461;-82
2022/12/21 06:36:21;;;;;;;29.27;18.75;;;;;;;11.07;77.30;99243.44;5032282;28;20060;-85
2022/12/21 06:38:48;;;;;;;31.75;20.70;;;;;;;11.04;77.43;99247.13;5032279;28;20062;-82
2022/12/21 06:41:18;;;;;;;33.38;20.85;;;;;;;11.02;77.08;99261.31;5032324;28;20498;-84
2022/12/21 06:43:46;;;;;;;32.17;20.45;;;;;;;11.01;77.35;99265.75;5032289;28;20103;-84
2022/12/21 06:46:15;;;;;;;31.75;21.70;;;;;;;10.99;77.09;99270.25;5032182;28;20060;-84
2022/12/21 06:48:42;;;;;;;33.00;20.98;;;;;;;10.97;77.40;99258.16;5031887;28;20112;-84
2022/12/21 06:51:14;;;;;;;24.70;15.90;;;;;;;10.93;76.74;99262.78;5031653;28;20057;-84
2022/12/21 06:53:43;;;;;;;24.30;15.90;;;;;;;10.92;77.20;99261.94;5014608;28;20088;-84
2022/12/21 06:56:18;;;;;;;25.50;15.82;;;;;;;10.88;76.64;99264.88;5031863;28;20163;-85
2022/12/21 06:58:48;;;;;;;26.63;15.75;;;;;;;10.87;76.93;99268.47;5032132;28;20088;-86
2022/12/21 07:01:18;;;;;;;22.70;14.52;;;;;;;10.85;76.89;99271.22;5014583;28;20091;-86
2022/12/21 07:03:45;;;;;;;22.40;11.95;;;;;;;10.81;76.63;99267.91;5032189;28;20409;-85
2022/12/21 07:06:15;;;;;;;20.23;11.02;;;;;;;10.76;76.13;99261.28;5031693;28;20132;-83
2022/12/21 07:08:42;;;;;;;17.73;10.07;;;;;;;10.72;76.14;99260.63;5014141;28;20141;-84
2022/12/21 07:11:12;;;;;;;15.52;10.05;;;;;;;10.67;75.79;99262.72;5030121;28;20470;-83
2022/12/21 07:13:41;;;;;;;19.65;10.30;;;;;;;10.62;76.11;99255.13;5030375;28;20076;-84
2022/12/21 07:16:08;;;;;;;17.35;9.48;;;;;;;10.59;76.24;99265.00;5030960;28;20282;-85
2022/12/21 07:18:36;;;;;;;15.25;8.43;;;;;;;10.55;76.30;99257.31;5031703;28;20532;-85
2022/12/21 07:21:06;;;;;;;15.57;8.48;;;;;;;10.51;75.91;99262.88;5031688;28;20107;-85
2022/12/21 07:23:35;;;;;;;15.93;9.27;;;;;;;10.45;75.69;99256.22;5031820;28;20093;-84
2022/12/21 07:26:11;;;;;;;15.45;8.10;;;;;;;10.38;75.31;99244.38;5030257;28;20063;-84
2022/12/21 07:28:37;;;;;;;14.45;8.10;;;;;;;10.36;76.04;99248.91;5013007;28;20059;-85
2022/12/21 07:31:09;;;;;;;19.50;8.55;;;;;;;10.28;75.65;99242.34;5030551;28;20091;-83
2022/12/21 07:36:36;;;;;;;15.75;8.93;;;;;;;10.24;76.28;99240.00;5022625;23;20120;-80
2022/12/21 07:39:02;;;;;;;16.83;9.60;;;;;;;10.22;76.44;99241.88;5010143;28;20504;-79
2022/12/21 07:41:29;;;;;;;19.45;9.18;;;;;;;10.19;76.63;99242.06;5010723;28;20058;-80
2022/12/21 07:43:55;;;;;;;23.05;9.52;;;;;;;10.18;76.72;99246.50;5010740;28;20057;-81
2022/12/21 07:46:22;;;;;;;23.48;10.57;;;;;;;10.16;76.90;99243.97;5010691;28;20058;-81
2022/12/21 07:48:49;;;;;;;17.55;10.02;;;;;;;10.15;76.84;99244.91;4993270;28;20140;-83
2022/12/21 07:51:16;;;;;;;21.00;10.80;;;;;;;10.14;76.76;99247.63;4993514;28;20050;-80
2022/12/21 07:53:42;;;;;;;22.85;11.43;;;;;;;10.14;76.96;99247.63;5010757;28;20054;-80
2022/12/21 07:56:15;;;;;;;19.58;10.82;;;;;;;10.12;76.33;99244.25;5010665;28;20053;-80
2022/12/21 07:58:42;;;;;;;20.75;11.00;;;;;;;10.11;76.86;99246.06;5010533;28;20615;-80
2022/12/21 08:01:11;;;;;;;19.05;10.98;;;;;;;10.10;76.79;99244.34;5010978;28;20058;-80
2022/12/21 08:03:39;;;;;;;18.65;9.88;;;;;;;10.10;76.76;99243.50;5011002;28;20050;-80
2022/12/21 08:06:07;;;;;;;17.65;9.57;;;;;;;10.06;76.97;99242.88;4993101;28;20064;-80
2022/12/21 08:08:34;;;;;;;20.40;10.63;;;;;;;10.07;76.89;99241.94;5010351;28;20053;-80
2022/12/21 08:11:01;;;;;;;19.45;10.85;;;;;;;10.05;76.94;99246.41;5010673;28;20428;-80
2022/12/21 08:13:29;;;;;;;19.65;10.38;;;;;;;10.04;76.65;99247.38;5010214;28;20528;-80
2022/12/21 08:16:03;;;;;;;16.92;9.73;;;;;;;9.99;76.24;99246.81;4993041;28;20057;-80
2022/12/21 08:18:30;;;;;;;16.13;9.23;;;;;;;10.00;76.92;99244.09;5010126;28;20539;-80
2022/12/21 08:20:57;;;;;;;16.70;8.77;;;;;;;10.00;77.02;99243.25;5001973;28;20058;-80
2022/12/21 08:23:23;;;;;;;16.20;8.70;;;;;;;9.99;77.35;99239.75;5009731;28;20054;-79
2022/12/21 08:25:50;;;;;;;19.88;9.13;;;;;;;9.98;77.21;99239.88;5009965;28;20463;-79
2022/12/21 08:28:17;;;;;;;17.48;8.95;;;;;;;9.99;77.05;99236.31;5010455;28;20054;-79
2022/12/21 08:30:44;;;;;;;16.95;8.38;;;;;;;9.98;77.16;99227.56;5010433;28;20065;-79
2022/12/21 08:33:10;;;;;;;16.88;8.23;;;;;;;9.97;77.13;99231.13;5027086;28;20108;-79
2022/12/21 08:35:37;;;;;;;13.02;8.18;;;;;;;9.97;77.14;99227.66;5012025;28;20499;-80
2022/12/21 08:38:03;;;;;;;15.50;7.65;;;;;;;9.96;77.16;99229.47;5029825;28;20053;-79
2022/12/21 08:40:31;;;;;;;18.50;8.07;;;;;;;9.97;77.14;99236.41;5029743;28;20062;-79
2022/12/21 08:42:57;;;;;;;20.52;8.50;;;;;;;9.98;77.04;99237.25;5030010;28;20053;-80
2022/12/21 08:45:24;;;;;;;18.38;7.93;;;;;;;9.96;77.38;99232.09;5029712;28;20560;-79
2022/12/21 08:47:50;;;;;;;15.32;8.60;;;;;;;9.97;77.52;99236.41;5012190;28;20061;-79
2022/12/21 08:50:17;;;;;;;15.05;8.43;;;;;;;9.98;77.38;99229.38;5029971;28;20057;-80
2022/12/21 08:52:43;;;;;;;29.17;8.73;;;;;;;9.99;77.41;99231.88;5029874;28;20057;-79
2022/12/21 08:55:09;;;;;;;14.80;8.13;;;;;;;10.00;77.29;99233.59;5029575;28;20061;-80
2022/12/21 08:57:36;;;;;;;13.57;6.80;;;;;;;9.99;77.30;99245.00;5028722;28;20058;-79
2022/12/21 09:00:03;;;;;;;16.48;7.88;;;;;;;10.00;77.16;99249.34;5029873;28;20053;-80
2022/12/21 09:02:30;;;;;;;18.63;7.80;;;;;;;10.01;77.20;99244.91;5029806;28;20104;-80
2022/12/21 09:04:56;;;;;;;14.15;7.95;;;;;;;10.02;77.23;99257.16;5012010;28;20049;-79
2022/12/21 09:07:23;;;;;;;14.38;7.43;;;;;;;10.02;77.23;99257.97;5029721;28;20065;-79
2022/12/21 09:09:49;;;;;;;16.73;7.97;;;;;;;10.00;77.19;99262.50;5029757;28;20061;-80
2022/12/21 09:12:15;;;;;;;14.82;7.13;;;;;;;10.02;77.31;99265.03;5029967;28;20061;-80
2022/12/21 09:14:42;;;;;;;14.45;7.75;;;;;;;10.03;77.19;99256.22;5029612;28;20053;-80
2022/12/21 09:17:08;;;;;;;17.85;8.38;;;;;;;10.01;77.04;99258.94;5029502;28;20053;-80
2022/12/21 09:19:35;;;;;;;20.92;8.70;;;;;;;10.01;77.24;99255.44;5012014;28;20578;-80
2022/12/21 09:22:01;;;;;;;15.93;8.10;;;;;;;10.02;77.29;99254.53;5029454;28;20061;-79
2022/12/21 09:24:27;;;;;;;20.65;8.80;;;;;;;10.01;77.53;99256.28;5029555;28;20050;-79
2022/12/21 09:26:54;;;;;;;18.10;9.07;;;;;;;10.02;77.85;99251.91;5029442;28;20061;-79
2022/12/21 09:29:22;;;;;;;20.15;9.18;;;;;;;10.03;77.84;99249.13;5029740;28;20065;-80
2022/12/21 09:31:50;;;;;;;18.50;9.45;;;;;;;10.06;78.01;99250.75;5029624;28;20064;-80
2022/12/21 09:34:18;;;;;;;20.60;9.43;;;;;;;10.07;77.74;99255.06;5014563;28;20104;-80
2022/12/21 09:36:44;;;;;;;19.73;8.57;;;;;;;10.10;77.81;99249.59;5032620;28;20107;-80
2022/12/21 09:39:30;;;;;;;16.42;8.13;;;;;;;10.11;77.73;99238.16;5033228;28;20053;-80
2022/12/21 09:42:19;;;;;;;16.48;8.25;;;;;;;10.12;76.79;99238.97;5015594;28;20057;-80
2022/12/21 09:45:01;;;;;;;16.27;7.93;;;;;;;10.13;76.52;99248.59;5032909;28;20054;-80
2022/12/21 09:48:06;;;;;;;18.88;8.90;;;;;;;10.12;76.21;99255.63;5015580;28;20132;-80
2022/12/21 09:50:44;;;;;;;17.17;9.43;;;;;;;10.13;76.52;99261.75;4952541;28;20106;-80
2022/12/21 09:53:26;;;;;;;17.88;10.10;;;;;;;10.10;76.42;99268.00;5024436;28;20491;-80
2022/12/21 09:55:54;;;;;;;20.73;10.88;;;;;;;10.12;77.17;99260.88;5015537;28;20148;-79
2022/12/21 09:58:25;;;;;;;20.50;10.50;;;;;;;10.12;77.74;99260.03;5032825;28;20063;-80
2022/12/21 10:01:18;;;;;;;17.98;10.40;;;;;;;10.10;77.16;99261.91;5032878;28;20065;-80
2022/12/21 10:04:00;;;;;;;20.93;11.13;;;;;;;10.11;76.90;99258.34;5011771;28;20049;-80
2022/12/21 10:06:45;;;;;;;20.27;10.50;;;;;;;10.18;78.12;99262.28;5032650;28;20516;-80
2022/12/21 10:09:24;;;;;;;17.38;10.23;;;;;;;10.17;77.12;99255.34;5032718;28;20058;-80
2022/12/21 10:12:12;;;;;;;19.42;10.75;;;;;;;10.18;77.20;99257.03;5032569;28;20053;-80
2022/12/21 10:15:07;;;;;;;19.92;10.90;;;;;;;10.20;77.16;99257.75;5032567;28;20065;-80
2022/12/21 10:17:51;;;;;;;21.20;10.43;;;;;;;10.24;77.05;99256.63;5032194;28;20060;-80
2022/12/21 10:20:24;;;;;;;22.63;11.43;;;;;;;10.28;77.84;99244.97;5032247;28;20144;-81
2022/12/21 10:23:19;;;;;;;24.15;11.55;;;;;;;10.24;76.71;99240.00;5032546;28;20061;-80
2022/12/21 10:25:50;;;;;;;21.98;10.20;;;;;;;10.27;77.30;99235.38;5007482;28;20076;-79
2022/12/21 10:28:39;;;;;;;22.73;12.38;;;;;;;10.22;76.54;99232.22;5032124;28;20049;-80
2022/12/21 10:31:10;;;;;;;22.15;11.50;;;;;;;10.25;76.99;99246.97;5032113;28;20523;-80
2022/12/21 10:33:40;;;;;;;21.70;11.20;;;;;;;10.22;77.10;99240.09;5032421;28;20056;-79
2022/12/21 10:36:14;;;;;;;22.23;11.68;;;;;;;10.19;76.20;99247.31;5031623;28;20072;-80
2022/12/21 10:38:41;;;;;;;21.33;12.27;;;;;;;10.19;77.33;99253.44;5031830;28;20091;-79
2022/12/21 10:41:17;;;;;;;22.42;11.27;;;;;;;10.17;77.17;99253.53;5031893;28;20424;-80
2022/12/21 10:43:48;;;;;;;20.05;10.93;;;;;;;10.18;77.94;99241.25;5031773;28;20614;-80
2022/12/21 10:46:19;;;;;;;21.92;11.40;;;;;;;10.17;77.59;99239.56;5030960;28;20471;-80
2022/12/21 10:48:47;;;;;;;18.75;10.10;;;;;;;10.22;78.38;99239.25;5031712;28;20103;-80
2022/12/21 10:51:26;;;;;;;19.45;10.52;;;;;;;10.25;78.47;99239.88;5031614;28;20543;-80
2022/12/21 10:54:04;;;;;;;22.20;11.68;;;;;;;10.30;78.60;99236.97;5031592;28;20133;-80
2022/12/21 10:56:51;;;;;;;20.15;9.73;;;;;;;10.34;77.60;99240.25;5031703;28;20061;-80
2022/12/21 10:59:23;;;;;;;20.13;9.77;;;;;;;10.45;78.72;99245.69;5031496;28;20500;-80
2022/12/21 11:01:51;;;;;;;15.85;9.30;;;;;;;10.49;78.42;99249.81;5031546;28;20053;-79
2022/12/21 11:04:26;;;;;;;20.77;10.38;;;;;;;10.51;77.33;99242.66;5031257;28;20409;-80
2022/12/21 11:06:57;;;;;;;19.60;9.52;;;;;;;10.54;77.78;99241.59;5013829;28;20057;-80
2022/12/21 11:09:29;;;;;;;18.52;10.80;;;;;;;10.55;76.53;99240.69;5031517;28;20470;-79
2022/12/21 11:11:55;;;;;;;22.60;11.75;;;;;;;10.57;77.45;99240.59;5031437;28;20057;-80
2022/12/21 11:14:23;;;;;;;20.95;11.93;;;;;;;10.57;77.32;99243.22;5031218;28;20050;-80
2022/12/21 11:16:49;;;;;;;19.08;11.70;;;;;;;10.56;77.21;99245.00;5030890;28;20057;-80
2022/12/21 11:19:19;;;;;;;25.52;13.07;;;;;;;10.52;77.18;99243.50;5031284;28;20140;-80
2022/12/21 11:21:52;;;;;;;23.73;12.10;;;;;;;10.51;76.48;99239.19;5031059;28;20512;-80
2022/12/21 11:24:30;;;;;;;25.20;12.50;;;;;;;10.49;76.38;99228.78;5031132;28;20057;-80
2022/12/21 11:27:29;;;;;;;21.63;13.30;;;;;;;10.50;76.75;99219.91;5031039;28;20175;-80
2022/12/21 11:30:07;;;;;;;22.35;13.38;;;;;;;10.49;76.35;99217.38;5028995;28;20057;-80
2022/12/21 11:32:35;;;;;;;24.33;14.02;;;;;;;10.50;77.40;99212.03;5031066;28;20061;-80
2022/12/21 11:35:05;;;;;;;22.95;13.55;;;;;;;10.49;76.77;99218.25;5030449;28;20466;-80
2022/12/21 11:37:37;;;;;;;27.25;14.15;;;;;;;10.49;77.77;99220.88;5012993;28;20518;-80
2022/12/21 11:40:22;;;;;;;24.15;14.48;;;;;;;10.45;76.31;99222.00;5030922;28;20061;-80
2022/12/21 11:42:51;;;;;;;28.90;14.73;;;;;;;10.46;77.02;99213.16;5030855;28;20068;-80
2022/12/21 11:45:25;;;;;;;27.00;15.23;;;;;;;10.45;76.83;99206.22;5030423;28;20058;-80
2022/12/21 11:48:06;;;;;;;26.85;15.20;;;;;;;10.47;76.78;99204.31;5030424;28;20064;-80
2022/12/21 11:50:32;;;;;;;27.17;16.02;;;;;;;10.49;77.70;99199.81;5017274;28;20064;-80
2022/12/21 11:52:59;;;;;;;28.60;16.63;;;;;;;10.50;77.62;99203.31;5018688;28;20120;-80
2022/12/21 11:55:40;;;;;;;23.75;15.50;;;;;;;10.47;76.42;99217.47;5009736;28;20050;-80